sensor_id;sensor_type;location;lat;lon;timestamp;P1;durP1;ratioP1;P2;durP2;ratioP2
76953;SDS011;65893;51.698;-0.292;2023-05-07T00:27:40;23.55;;;9.73;;
76953;SDS011;65893;51.698;-0.292;2023-05-07T00:31:06;25.58;;;11.40;;
76953;SDS011;65893;51.698;-0.292;2023-05-07T00:57:18;18.88;;;9.00;;
76953;SDS011;65893;51.698;-0.292;2023-05-07T06:13:13;19.88;;;7.10;;
76953;SDS011;65893;51.698;-0.292;2023-05-07T06:15:42;17.63;;;7.35;;
76953;SDS011;65893;51.698;-0.292;2023-05-07T06:18:11;16.95;;;7.20;;
76953;SDS011;65893;51.698;-0.292;2023-05-07T06:34:11;19.00;;;6.60;;
76953;SDS011;65893;51.698;-0.292;2023-05-07T06:54:53;14.93;;;5.68;;
76953;SDS011;65893;51.698;-0.292;2023-05-07T06:57:45;12.27;;;5.95;;
76953;SDS011;65893;51.698;-0.292;2023-05-07T07:16:34;12.43;;;6.05;;
76953;SDS011;65893;51.698;-0.292;2023-05-07T07:19:16;14.90;;;5.68;;
76953;SDS011;65893;51.698;-0.292;2023-05-07T07:21:46;13.35;;;6.85;;
76953;SDS011;65893;51.698;-0.292;2023-05-07T07:26:47;13.52;;;5.93;;
76953;SDS011;65893;51.698;-0.292;2023-05-07T07:35:50;11.48;;;4.78;;
76953;SDS011;65893;51.698;-0.292;2023-05-07T07:45:00;12.68;;;5.97;;
76953;SDS011;65893;51.698;-0.292;2023-05-07T07:47:57;11.27;;;5.38;;
76953;SDS011;65893;51.698;-0.292;2023-05-07T07:53:49;12.05;;;5.60;;
76953;SDS011;65893;51.698;-0.292;2023-05-07T07:56:20;14.27;;;5.85;;
76953;SDS011;65893;51.698;-0.292;2023-05-07T09:00:39;11.80;;;5.10;;
76953;SDS011;65893;51.698;-0.292;2023-05-07T09:03:07;12.40;;;6.13;;
76953;SDS011;65893;51.698;-0.292;2023-05-07T09:05:33;11.98;;;5.43;;
76953;SDS011;65893;51.698;-0.292;2023-05-07T09:08:02;9.30;;;4.25;;
76953;SDS011;65893;51.698;-0.292;2023-05-07T09:10:29;10.25;;;5.38;;
76953;SDS011;65893;51.698;-0.292;2023-05-07T09:20:43;9.57;;;4.53;;
76953;SDS011;65893;51.698;-0.292;2023-05-07T09:23:10;9.32;;;4.10;;
76953;SDS011;65893;51.698;-0.292;2023-05-07T09:29:01;8.95;;;4.15;;
76953;SDS011;65893;51.698;-0.292;2023-05-07T09:31:36;7.70;;;3.50;;
76953;SDS011;65893;51.698;-0.292;2023-05-07T09:34:08;8.80;;;3.95;;
76953;SDS011;65893;51.698;-0.292;2023-05-07T09:36:40;9.63;;;3.95;;
76953;SDS011;65893;51.698;-0.292;2023-05-07T09:39:08;11.23;;;4.80;;
76953;SDS011;65893;51.698;-0.292;2023-05-07T09:41:42;9.80;;;3.95;;
76953;SDS011;65893;51.698;-0.292;2023-05-07T09:44:14;9.57;;;4.63;;
76953;SDS011;65893;51.698;-0.292;2023-05-07T09:46:47;9.30;;;3.75;;
76953;SDS011;65893;51.698;-0.292;2023-05-07T09:49:20;9.57;;;4.57;;
76953;SDS011;65893;51.698;-0.292;2023-05-07T09:51:50;8.57;;;3.47;;
76953;SDS011;65893;51.698;-0.292;2023-05-07T09:54:19;7.03;;;3.63;;
76953;SDS011;65893;51.698;-0.292;2023-05-07T09:56:51;8.10;;;3.10;;
76953;SDS011;65893;51.698;-0.292;2023-05-07T09:59:18;9.40;;;3.75;;
76953;SDS011;65893;51.698;-0.292;2023-05-07T10:01:44;8.10;;;3.40;;
76953;SDS011;65893;51.698;-0.292;2023-05-07T10:04:19;7.90;;;3.47;;
76953;SDS011;65893;51.698;-0.292;2023-05-07T10:06:46;9.65;;;3.72;;
76953;SDS011;65893;51.698;-0.292;2023-05-07T10:09:13;8.40;;;3.90;;
76953;SDS011;65893;51.698;-0.292;2023-05-07T10:11:39;7.22;;;3.45;;
76953;SDS011;65893;51.698;-0.292;2023-05-07T10:14:06;7.43;;;3.45;;
76953;SDS011;65893;51.698;-0.292;2023-05-07T10:16:33;7.10;;;3.35;;
76953;SDS011;65893;51.698;-0.292;2023-05-07T10:19:04;7.97;;;3.65;;
76953;SDS011;65893;51.698;-0.292;2023-05-07T10:21:30;7.35;;;3.65;;
76953;SDS011;65893;51.698;-0.292;2023-05-07T10:24:02;7.70;;;2.90;;
76953;SDS011;65893;51.698;-0.292;2023-05-07T10:26:31;9.07;;;3.50;;
76953;SDS011;65893;51.698;-0.292;2023-05-07T10:28:59;6.95;;;3.20;;
76953;SDS011;65893;51.698;-0.292;2023-05-07T10:33:57;7.93;;;2.63;;
76953;SDS011;65893;51.698;-0.292;2023-05-07T10:36:23;6.38;;;3.00;;
76953;SDS011;65893;51.698;-0.292;2023-05-07T10:38:50;5.97;;;2.53;;
76953;SDS011;65893;51.698;-0.292;2023-05-07T10:41:16;9.73;;;3.03;;
76953;SDS011;65893;51.698;-0.292;2023-05-07T10:43:44;6.95;;;2.58;;
76953;SDS011;65893;51.698;-0.292;2023-05-07T10:54:44;7.97;;;3.30;;
76953;SDS011;65893;51.698;-0.292;2023-05-07T11:28:10;8.13;;;3.88;;
76953;SDS011;65893;51.698;-0.292;2023-05-07T11:30:43;8.00;;;3.42;;
76953;SDS011;65893;51.698;-0.292;2023-05-07T11:36:42;5.90;;;2.85;;
76953;SDS011;65893;51.698;-0.292;2023-05-07T11:42:09;7.10;;;3.30;;
76953;SDS011;65893;51.698;-0.292;2023-05-07T11:50:21;6.15;;;2.95;;
76953;SDS011;65893;51.698;-0.292;2023-05-07T11:55:17;7.15;;;3.10;;
76953;SDS011;65893;51.698;-0.292;2023-05-07T12:14:58;6.70;;;2.30;;
76953;SDS011;65893;51.698;-0.292;2023-05-07T12:31:34;5.97;;;2.55;;
76953;SDS011;65893;51.698;-0.292;2023-05-07T13:08:37;3.78;;;1.42;;
76953;SDS011;65893;51.698;-0.292;2023-05-07T13:21:19;3.15;;;1.10;;
76953;SDS011;65893;51.698;-0.292;2023-05-07T13:23:47;3.53;;;1.00;;
76953;SDS011;65893;51.698;-0.292;2023-05-07T13:28:52;1.95;;;1.00;;
76953;SDS011;65893;51.698;-0.292;2023-05-07T13:31:22;3.65;;;1.35;;
76953;SDS011;65893;51.698;-0.292;2023-05-07T13:41:50;3.70;;;1.60;;
76953;SDS011;65893;51.698;-0.292;2023-05-07T13:44:16;4.18;;;1.92;;
76953;SDS011;65893;51.698;-0.292;2023-05-07T13:46:42;4.88;;;1.48;;
76953;SDS011;65893;51.698;-0.292;2023-05-07T13:49:20;3.63;;;1.45;;
76953;SDS011;65893;51.698;-0.292;2023-05-07T13:54:54;4.18;;;1.63;;
76953;SDS011;65893;51.698;-0.292;2023-05-07T13:57:29;3.53;;;1.50;;
76953;SDS011;65893;51.698;-0.292;2023-05-07T13:59:59;3.47;;;0.90;;
76953;SDS011;65893;51.698;-0.292;2023-05-07T14:05:08;3.42;;;2.20;;
76953;SDS011;65893;51.698;-0.292;2023-05-07T14:07:35;4.18;;;1.33;;
76953;SDS011;65893;51.698;-0.292;2023-05-07T14:10:04;3.53;;;1.50;;
76953;SDS011;65893;51.698;-0.292;2023-05-07T14:12:56;3.15;;;1.20;;
76953;SDS011;65893;51.698;-0.292;2023-05-07T14:15:22;3.65;;;1.15;;
76953;SDS011;65893;51.698;-0.292;2023-05-07T14:20:33;4.20;;;1.10;;
76953;SDS011;65893;51.698;-0.292;2023-05-07T14:38:21;2.95;;;1.17;;
76953;SDS011;65893;51.698;-0.292;2023-05-07T14:40:51;4.05;;;1.42;;
76953;SDS011;65893;51.698;-0.292;2023-05-07T14:57:45;4.03;;;1.27;;
76953;SDS011;65893;51.698;-0.292;2023-05-07T15:02:56;4.70;;;1.23;;
76953;SDS011;65893;51.698;-0.292;2023-05-07T15:05:28;5.40;;;2.20;;
76953;SDS011;65893;51.698;-0.292;2023-05-07T15:07:56;3.80;;;1.20;;
76953;SDS011;65893;51.698;-0.292;2023-05-07T15:10:26;2.65;;;1.08;;
76953;SDS011;65893;51.698;-0.292;2023-05-07T15:13:14;3.42;;;1.00;;
76953;SDS011;65893;51.698;-0.292;2023-05-07T15:15:41;4.13;;;1.67;;
76953;SDS011;65893;51.698;-0.292;2023-05-07T15:18:10;3.70;;;1.30;;
76953;SDS011;65893;51.698;-0.292;2023-05-07T15:20:39;6.53;;;1.30;;
76953;SDS011;65893;51.698;-0.292;2023-05-07T15:23:09;2.50;;;1.00;;
76953;SDS011;65893;51.698;-0.292;2023-05-07T15:25:39;3.08;;;1.40;;
76953;SDS011;65893;51.698;-0.292;2023-05-07T15:28:06;2.38;;;1.17;;
76953;SDS011;65893;51.698;-0.292;2023-05-07T15:30:34;5.63;;;1.75;;
76953;SDS011;65893;51.698;-0.292;2023-05-07T15:33:03;4.65;;;1.30;;
76953;SDS011;65893;51.698;-0.292;2023-05-07T15:35:29;7.03;;;1.42;;
76953;SDS011;65893;51.698;-0.292;2023-05-07T15:37:55;2.92;;;1.10;;
76953;SDS011;65893;51.698;-0.292;2023-05-07T15:40:22;5.45;;;1.30;;
76953;SDS011;65893;51.698;-0.292;2023-05-07T15:42:50;2.88;;;1.00;;
76953;SDS011;65893;51.698;-0.292;2023-05-07T15:45:19;3.78;;;1.20;;
76953;SDS011;65893;51.698;-0.292;2023-05-07T15:47:46;1.92;;;0.90;;
76953;SDS011;65893;51.698;-0.292;2023-05-07T15:50:13;2.22;;;0.93;;
76953;SDS011;65893;51.698;-0.292;2023-05-07T15:52:43;5.10;;;1.20;;
76953;SDS011;65893;51.698;-0.292;2023-05-07T15:55:11;2.97;;;1.15;;
76953;SDS011;65893;51.698;-0.292;2023-05-07T15:57:37;1.83;;;0.82;;
76953;SDS011;65893;51.698;-0.292;2023-05-07T16:00:03;2.78;;;1.02;;
76953;SDS011;65893;51.698;-0.292;2023-05-07T16:02:33;2.22;;;0.85;;
76953;SDS011;65893;51.698;-0.292;2023-05-07T16:05:02;2.97;;;0.98;;
76953;SDS011;65893;51.698;-0.292;2023-05-07T16:07:28;2.72;;;1.10;;
76953;SDS011;65893;51.698;-0.292;2023-05-07T16:09:55;5.43;;;1.45;;
76953;SDS011;65893;51.698;-0.292;2023-05-07T16:15:13;2.65;;;0.93;;
76953;SDS011;65893;51.698;-0.292;2023-05-07T16:17:39;4.05;;;1.48;;
76953;SDS011;65893;51.698;-0.292;2023-05-07T16:20:06;1.88;;;0.73;;
76953;SDS011;65893;51.698;-0.292;2023-05-07T16:22:33;3.53;;;0.90;;
76953;SDS011;65893;51.698;-0.292;2023-05-07T16:25:00;4.15;;;1.02;;
76953;SDS011;65893;51.698;-0.292;2023-05-07T16:27:26;1.77;;;0.85;;
76953;SDS011;65893;51.698;-0.292;2023-05-07T16:29:52;2.55;;;1.00;;
76953;SDS011;65893;51.698;-0.292;2023-05-07T16:32:18;4.35;;;1.13;;
76953;SDS011;65893;51.698;-0.292;2023-05-07T16:34:44;6.45;;;1.45;;
76953;SDS011;65893;51.698;-0.292;2023-05-07T16:37:13;5.75;;;1.08;;
76953;SDS011;65893;51.698;-0.292;2023-05-07T16:39:39;2.95;;;1.08;;
76953;SDS011;65893;51.698;-0.292;2023-05-07T16:42:16;3.25;;;0.90;;
76953;SDS011;65893;51.698;-0.292;2023-05-07T16:44:52;3.88;;;1.27;;
76953;SDS011;65893;51.698;-0.292;2023-05-07T16:47:22;3.65;;;1.02;;
76953;SDS011;65893;51.698;-0.292;2023-05-07T16:49:49;4.72;;;1.23;;
76953;SDS011;65893;51.698;-0.292;2023-05-07T16:52:23;6.80;;;1.58;;
76953;SDS011;65893;51.698;-0.292;2023-05-07T16:54:49;3.67;;;1.20;;
76953;SDS011;65893;51.698;-0.292;2023-05-07T16:57:15;4.13;;;1.17;;
76953;SDS011;65893;51.698;-0.292;2023-05-07T16:59:41;6.05;;;1.02;;
76953;SDS011;65893;51.698;-0.292;2023-05-07T17:02:07;7.63;;;2.97;;
76953;SDS011;65893;51.698;-0.292;2023-05-07T17:04:34;2.38;;;0.98;;
76953;SDS011;65893;51.698;-0.292;2023-05-07T17:07:02;2.80;;;1.05;;
76953;SDS011;65893;51.698;-0.292;2023-05-07T17:09:37;4.85;;;1.10;;
76953;SDS011;65893;51.698;-0.292;2023-05-07T17:12:04;5.78;;;1.13;;
76953;SDS011;65893;51.698;-0.292;2023-05-07T17:14:31;3.72;;;1.17;;
76953;SDS011;65893;51.698;-0.292;2023-05-07T17:17:05;3.33;;;1.02;;
76953;SDS011;65893;51.698;-0.292;2023-05-07T17:19:32;4.32;;;1.23;;
76953;SDS011;65893;51.698;-0.292;2023-05-07T17:21:58;7.57;;;1.10;;
76953;SDS011;65893;51.698;-0.292;2023-05-07T17:24:27;3.60;;;0.95;;
76953;SDS011;65893;51.698;-0.292;2023-05-07T17:26:54;5.60;;;1.10;;
76953;SDS011;65893;51.698;-0.292;2023-05-07T17:29:20;4.03;;;1.10;;
76953;SDS011;65893;51.698;-0.292;2023-05-07T17:31:48;3.53;;;1.10;;
76953;SDS011;65893;51.698;-0.292;2023-05-07T17:34:15;6.30;;;2.42;;
76953;SDS011;65893;51.698;-0.292;2023-05-07T17:36:41;3.83;;;1.35;;
76953;SDS011;65893;51.698;-0.292;2023-05-07T17:39:07;3.13;;;1.10;;
76953;SDS011;65893;51.698;-0.292;2023-05-07T17:41:34;6.10;;;1.02;;
76953;SDS011;65893;51.698;-0.292;2023-05-07T17:44:03;4.88;;;1.38;;
76953;SDS011;65893;51.698;-0.292;2023-05-07T17:46:29;4.13;;;1.20;;
76953;SDS011;65893;51.698;-0.292;2023-05-07T17:48:57;5.85;;;1.58;;
76953;SDS011;65893;51.698;-0.292;2023-05-07T17:51:23;3.50;;;1.00;;
76953;SDS011;65893;51.698;-0.292;2023-05-07T17:56:56;4.97;;;1.33;;
76953;SDS011;65893;51.698;-0.292;2023-05-07T18:02:17;3.80;;;1.10;;
76953;SDS011;65893;51.698;-0.292;2023-05-07T18:04:51;3.85;;;1.08;;
76953;SDS011;65893;51.698;-0.292;2023-05-07T18:07:23;4.60;;;1.30;;
76953;SDS011;65893;51.698;-0.292;2023-05-07T18:09:56;4.40;;;1.30;;
76953;SDS011;65893;51.698;-0.292;2023-05-07T18:12:23;4.60;;;1.30;;
76953;SDS011;65893;51.698;-0.292;2023-05-07T18:14:50;6.05;;;1.60;;
76953;SDS011;65893;51.698;-0.292;2023-05-07T18:17:16;2.95;;;1.10;;
76953;SDS011;65893;51.698;-0.292;2023-05-07T18:19:42;3.45;;;1.48;;
76953;SDS011;65893;51.698;-0.292;2023-05-07T18:22:15;6.20;;;1.52;;
76953;SDS011;65893;51.698;-0.292;2023-05-07T18:24:44;7.65;;;2.45;;
76953;SDS011;65893;51.698;-0.292;2023-05-07T18:27:14;6.13;;;2.30;;
76953;SDS011;65893;51.698;-0.292;2023-05-07T18:29:41;7.70;;;1.70;;
76953;SDS011;65893;51.698;-0.292;2023-05-07T18:32:08;3.50;;;1.27;;
76953;SDS011;65893;51.698;-0.292;2023-05-07T18:34:36;5.90;;;1.77;;
76953;SDS011;65893;51.698;-0.292;2023-05-07T18:37:04;8.25;;;1.55;;
76953;SDS011;65893;51.698;-0.292;2023-05-07T18:39:31;3.70;;;1.35;;
76953;SDS011;65893;51.698;-0.292;2023-05-07T18:41:57;3.80;;;1.67;;
76953;SDS011;65893;51.698;-0.292;2023-05-07T18:44:23;7.28;;;1.85;;
76953;SDS011;65893;51.698;-0.292;2023-05-07T18:46:52;5.70;;;1.90;;
76953;SDS011;65893;51.698;-0.292;2023-05-07T18:49:22;6.30;;;1.48;;
76953;SDS011;65893;51.698;-0.292;2023-05-07T18:51:48;4.60;;;1.90;;
76953;SDS011;65893;51.698;-0.292;2023-05-07T18:54:14;5.25;;;1.75;;
76953;SDS011;65893;51.698;-0.292;2023-05-07T18:56:40;5.82;;;3.03;;
76953;SDS011;65893;51.698;-0.292;2023-05-07T18:59:07;5.15;;;1.80;;
76953;SDS011;65893;51.698;-0.292;2023-05-07T19:01:34;5.10;;;2.13;;
76953;SDS011;65893;51.698;-0.292;2023-05-07T19:04:09;6.07;;;1.70;;
76953;SDS011;65893;51.698;-0.292;2023-05-07T19:06:37;5.03;;;1.67;;
76953;SDS011;65893;51.698;-0.292;2023-05-07T19:09:03;7.40;;;2.00;;
76953;SDS011;65893;51.698;-0.292;2023-05-07T19:11:30;12.07;;;1.90;;
76953;SDS011;65893;51.698;-0.292;2023-05-07T19:14:04;5.68;;;2.10;;
76953;SDS011;65893;51.698;-0.292;2023-05-07T19:16:31;5.00;;;1.85;;
76953;SDS011;65893;51.698;-0.292;2023-05-07T19:18:57;6.50;;;2.13;;
76953;SDS011;65893;51.698;-0.292;2023-05-07T19:21:24;8.35;;;2.10;;
76953;SDS011;65893;51.698;-0.292;2023-05-07T19:23:52;4.95;;;2.40;;
76953;SDS011;65893;51.698;-0.292;2023-05-07T19:26:21;5.18;;;1.98;;
76953;SDS011;65893;51.698;-0.292;2023-05-07T19:28:59;6.38;;;1.65;;
76953;SDS011;65893;51.698;-0.292;2023-05-07T19:31:26;6.57;;;2.28;;
76953;SDS011;65893;51.698;-0.292;2023-05-07T19:36:34;5.25;;;2.20;;
76953;SDS011;65893;51.698;-0.292;2023-05-07T19:39:11;6.95;;;2.63;;
76953;SDS011;65893;51.698;-0.292;2023-05-07T19:41:40;7.35;;;2.17;;
76953;SDS011;65893;51.698;-0.292;2023-05-07T19:49:30;5.30;;;1.85;;
76953;SDS011;65893;51.698;-0.292;2023-05-07T19:52:10;7.63;;;1.88;;
76953;SDS011;65893;51.698;-0.292;2023-05-07T19:54:36;6.18;;;1.83;;
76953;SDS011;65893;51.698;-0.292;2023-05-07T19:57:03;7.18;;;2.22;;
76953;SDS011;65893;51.698;-0.292;2023-05-07T19:59:29;8.85;;;2.03;;
76953;SDS011;65893;51.698;-0.292;2023-05-07T20:01:57;6.60;;;1.70;;
76953;SDS011;65893;51.698;-0.292;2023-05-07T20:04:23;6.93;;;2.90;;
76953;SDS011;65893;51.698;-0.292;2023-05-07T20:06:54;8.65;;;2.22;;
76953;SDS011;65893;51.698;-0.292;2023-05-07T20:09:21;9.02;;;2.65;;
76953;SDS011;65893;51.698;-0.292;2023-05-07T20:11:47;7.03;;;2.10;;
76953;SDS011;65893;51.698;-0.292;2023-05-07T20:23:09;8.35;;;2.58;;
76953;SDS011;65893;51.698;-0.292;2023-05-07T20:25:35;8.02;;;2.75;;
76953;SDS011;65893;51.698;-0.292;2023-05-07T20:28:03;10.65;;;3.22;;
76953;SDS011;65893;51.698;-0.292;2023-05-07T20:30:32;7.30;;;2.53;;
76953;SDS011;65893;51.698;-0.292;2023-05-07T20:33:44;6.03;;;2.22;;
76953;SDS011;65893;51.698;-0.292;2023-05-07T20:36:14;7.13;;;2.40;;
76953;SDS011;65893;51.698;-0.292;2023-05-07T20:38:42;5.70;;;2.40;;
76953;SDS011;65893;51.698;-0.292;2023-05-07T20:41:09;8.43;;;2.72;;
76953;SDS011;65893;51.698;-0.292;2023-05-07T20:43:49;5.88;;;2.50;;
76953;SDS011;65893;51.698;-0.292;2023-05-07T20:46:16;7.55;;;3.10;;
76953;SDS011;65893;51.698;-0.292;2023-05-07T20:48:44;9.02;;;2.85;;
76953;SDS011;65893;51.698;-0.292;2023-05-07T20:53:39;7.57;;;2.55;;
76953;SDS011;65893;51.698;-0.292;2023-05-07T20:56:11;10.40;;;3.80;;
76953;SDS011;65893;51.698;-0.292;2023-05-07T20:58:43;10.77;;;4.20;;
76953;SDS011;65893;51.698;-0.292;2023-05-07T21:01:18;10.32;;;4.03;;
76953;SDS011;65893;51.698;-0.292;2023-05-07T21:04:12;8.27;;;3.20;;
76953;SDS011;65893;51.698;-0.292;2023-05-07T21:06:40;7.45;;;2.78;;
76953;SDS011;65893;51.698;-0.292;2023-05-07T21:09:07;8.05;;;2.85;;
76953;SDS011;65893;51.698;-0.292;2023-05-07T21:11:33;10.00;;;2.88;;
76953;SDS011;65893;51.698;-0.292;2023-05-07T21:22:16;9.93;;;3.50;;
76953;SDS011;65893;51.698;-0.292;2023-05-07T21:24:42;8.05;;;3.45;;
76953;SDS011;65893;51.698;-0.292;2023-05-07T21:32:28;8.48;;;2.78;;
76953;SDS011;65893;51.698;-0.292;2023-05-07T21:34:57;10.73;;;3.70;;
76953;SDS011;65893;51.698;-0.292;2023-05-07T21:37:24;11.55;;;4.57;;
76953;SDS011;65893;51.698;-0.292;2023-05-07T21:40:00;12.50;;;5.05;;
76953;SDS011;65893;51.698;-0.292;2023-05-07T21:42:27;12.48;;;5.15;;
76953;SDS011;65893;51.698;-0.292;2023-05-07T21:44:53;13.40;;;4.90;;
76953;SDS011;65893;51.698;-0.292;2023-05-07T21:50:13;11.23;;;4.60;;
76953;SDS011;65893;51.698;-0.292;2023-05-07T21:52:39;10.25;;;4.15;;
76953;SDS011;65893;51.698;-0.292;2023-05-07T21:55:05;13.88;;;4.60;;
76953;SDS011;65893;51.698;-0.292;2023-05-07T21:57:32;12.15;;;4.20;;
76953;SDS011;65893;51.698;-0.292;2023-05-07T22:00:00;12.02;;;4.30;;
76953;SDS011;65893;51.698;-0.292;2023-05-07T22:02:29;12.40;;;4.65;;
76953;SDS011;65893;51.698;-0.292;2023-05-07T22:04:55;10.57;;;4.20;;
76953;SDS011;65893;51.698;-0.292;2023-05-07T22:07:21;9.43;;;4.25;;
76953;SDS011;65893;51.698;-0.292;2023-05-07T22:09:48;8.55;;;3.90;;
76953;SDS011;65893;51.698;-0.292;2023-05-07T22:12:17;10.57;;;4.30;;
76953;SDS011;65893;51.698;-0.292;2023-05-07T22:14:46;12.10;;;4.13;;
76953;SDS011;65893;51.698;-0.292;2023-05-07T22:17:17;11.35;;;4.35;;
76953;SDS011;65893;51.698;-0.292;2023-05-07T22:19:47;11.05;;;4.45;;
76953;SDS011;65893;51.698;-0.292;2023-05-07T22:22:17;13.13;;;5.30;;
76953;SDS011;65893;51.698;-0.292;2023-05-07T22:27:20;13.00;;;4.68;;
76953;SDS011;65893;51.698;-0.292;2023-05-07T22:29:49;11.05;;;4.65;;
76953;SDS011;65893;51.698;-0.292;2023-05-07T22:32:15;12.55;;;4.97;;
76953;SDS011;65893;51.698;-0.292;2023-05-07T22:34:56;13.18;;;4.32;;
76953;SDS011;65893;51.698;-0.292;2023-05-07T22:41:06;11.85;;;4.32;;
76953;SDS011;65893;51.698;-0.292;2023-05-07T22:43:36;11.52;;;4.40;;
76953;SDS011;65893;51.698;-0.292;2023-05-07T22:46:05;10.23;;;4.18;;
76953;SDS011;65893;51.698;-0.292;2023-05-07T22:48:41;9.52;;;3.70;;
76953;SDS011;65893;51.698;-0.292;2023-05-07T22:51:16;11.48;;;3.30;;
76953;SDS011;65893;51.698;-0.292;2023-05-07T22:53:49;9.43;;;3.75;;
76953;SDS011;65893;51.698;-0.292;2023-05-07T22:56:15;12.68;;;3.85;;
76953;SDS011;65893;51.698;-0.292;2023-05-07T22:58:47;15.10;;;3.50;;
76953;SDS011;65893;51.698;-0.292;2023-05-07T23:01:18;13.65;;;3.13;;
76953;SDS011;65893;51.698;-0.292;2023-05-07T23:03:44;11.00;;;3.50;;
76953;SDS011;65893;51.698;-0.292;2023-05-07T23:06:12;13.45;;;3.58;;
76953;SDS011;65893;51.698;-0.292;2023-05-07T23:08:38;9.65;;;4.10;;
76953;SDS011;65893;51.698;-0.292;2023-05-07T23:11:05;12.32;;;4.47;;
76953;SDS011;65893;51.698;-0.292;2023-05-07T23:13:34;10.00;;;3.80;;
76953;SDS011;65893;51.698;-0.292;2023-05-07T23:16:12;13.20;;;3.83;;
76953;SDS011;65893;51.698;-0.292;2023-05-07T23:18:38;9.98;;;4.15;;
76953;SDS011;65893;51.698;-0.292;2023-05-07T23:21:04;11.90;;;4.43;;
76953;SDS011;65893;51.698;-0.292;2023-05-07T23:23:32;8.45;;;3.78;;
76953;SDS011;65893;51.698;-0.292;2023-05-07T23:25:58;8.55;;;3.47;;
76953;SDS011;65893;51.698;-0.292;2023-05-07T23:28:24;10.40;;;4.22;;
76953;SDS011;65893;51.698;-0.292;2023-05-07T23:30:53;9.90;;;4.35;;
76953;SDS011;65893;51.698;-0.292;2023-05-07T23:33:20;11.15;;;3.50;;
76953;SDS011;65893;51.698;-0.292;2023-05-07T23:35:56;11.93;;;4.20;;
76953;SDS011;65893;51.698;-0.292;2023-05-07T23:38:23;9.02;;;3.85;;
76953;SDS011;65893;51.698;-0.292;2023-05-07T23:40:51;8.05;;;3.42;;
76953;SDS011;65893;51.698;-0.292;2023-05-07T23:43:17;12.68;;;4.05;;
76953;SDS011;65893;51.698;-0.292;2023-05-07T23:45:43;9.52;;;4.18;;
76953;SDS011;65893;51.698;-0.292;2023-05-07T23:48:09;10.65;;;4.18;;
76953;SDS011;65893;51.698;-0.292;2023-05-07T23:50:36;9.70;;;4.20;;
76953;SDS011;65893;51.698;-0.292;2023-05-07T23:53:04;12.35;;;4.28;;
76953;SDS011;65893;51.698;-0.292;2023-05-07T23:55:31;11.75;;;4.57;;
76953;SDS011;65893;51.698;-0.292;2023-05-07T23:57:57;13.20;;;4.03;;
